sensor_id;sensor_type;location;lat;lon;timestamp;P1;durP1;ratioP1;P2;durP2;ratioP2
11398;SDS011;5755;48.116;11.608;2023-04-24T00:01:33;1.90;;;1.50;;
11398;SDS011;5755;48.116;11.608;2023-04-24T00:09:12;3.67;;;1.30;;
11398;SDS011;5755;48.116;11.608;2023-04-24T00:11:41;2.53;;;1.40;;
11398;SDS011;5755;48.116;11.608;2023-04-24T00:14:07;2.03;;;1.10;;
11398;SDS011;5755;48.116;11.608;2023-04-24T00:19:11;2.25;;;1.60;;
11398;SDS011;5755;48.116;11.608;2023-04-24T00:24:14;2.88;;;1.30;;
11398;SDS011;5755;48.116;11.608;2023-04-24T00:29:12;1.30;;;1.20;;
11398;SDS011;5755;48.116;11.608;2023-04-24T00:31:39;1.40;;;1.30;;
11398;SDS011;5755;48.116;11.608;2023-04-24T00:34:06;1.27;;;1.15;;
11398;SDS011;5755;48.116;11.608;2023-04-24T00:36:34;1.35;;;1.25;;
11398;SDS011;5755;48.116;11.608;2023-04-24T00:39:01;2.42;;;1.40;;
11398;SDS011;5755;48.116;11.608;2023-04-24T00:41:28;1.15;;;1.10;;
11398;SDS011;5755;48.116;11.608;2023-04-24T00:43:56;2.47;;;1.80;;
11398;SDS011;5755;48.116;11.608;2023-04-24T00:46:22;1.20;;;1.10;;
11398;SDS011;5755;48.116;11.608;2023-04-24T00:48:49;1.98;;;1.77;;
11398;SDS011;5755;48.116;11.608;2023-04-24T00:51:17;0.95;;;0.90;;
11398;SDS011;5755;48.116;11.608;2023-04-24T00:53:45;1.60;;;1.25;;
11398;SDS011;5755;48.116;11.608;2023-04-24T00:56:12;2.45;;;1.00;;
11398;SDS011;5755;48.116;11.608;2023-04-24T00:58:39;0.98;;;0.95;;
11398;SDS011;5755;48.116;11.608;2023-04-24T01:01:06;1.00;;;1.00;;
11398;SDS011;5755;48.116;11.608;2023-04-24T01:03:34;0.88;;;0.88;;
11398;SDS011;5755;48.116;11.608;2023-04-24T01:06:02;1.38;;;0.90;;
11398;SDS011;5755;48.116;11.608;2023-04-24T01:11:07;1.73;;;1.00;;
11398;SDS011;5755;48.116;11.608;2023-04-24T01:13:34;1.35;;;1.00;;
11398;SDS011;5755;48.116;11.608;2023-04-24T01:16:01;1.83;;;0.82;;
11398;SDS011;5755;48.116;11.608;2023-04-24T01:18:28;1.20;;;0.82;;
11398;SDS011;5755;48.116;11.608;2023-04-24T01:23:31;1.10;;;0.93;;
11398;SDS011;5755;48.116;11.608;2023-04-24T01:25:58;1.35;;;1.20;;
11398;SDS011;5755;48.116;11.608;2023-04-24T01:28:26;1.20;;;1.10;;
11398;SDS011;5755;48.116;11.608;2023-04-24T01:30:53;1.00;;;0.82;;
11398;SDS011;5755;48.116;11.608;2023-04-24T01:33:20;0.80;;;0.80;;
11398;SDS011;5755;48.116;11.608;2023-04-24T01:38:23;0.95;;;0.73;;
11398;SDS011;5755;48.116;11.608;2023-04-24T01:40:51;1.55;;;1.45;;
11398;SDS011;5755;48.116;11.608;2023-04-24T01:43:18;1.35;;;1.25;;
11398;SDS011;5755;48.116;11.608;2023-04-24T01:45:45;0.90;;;0.90;;
11398;SDS011;5755;48.116;11.608;2023-04-24T01:48:12;0.80;;;0.80;;
11398;SDS011;5755;48.116;11.608;2023-04-24T01:50:39;0.90;;;0.90;;
11398;SDS011;5755;48.116;11.608;2023-04-24T01:53:06;1.77;;;0.77;;
11398;SDS011;5755;48.116;11.608;2023-04-24T01:58:10;0.80;;;0.80;;
11398;SDS011;5755;48.116;11.608;2023-04-24T02:00:37;1.35;;;0.82;;
11398;SDS011;5755;48.116;11.608;2023-04-24T02:03:04;1.23;;;0.85;;
11398;SDS011;5755;48.116;11.608;2023-04-24T02:05:31;0.75;;;0.75;;
11398;SDS011;5755;48.116;11.608;2023-04-24T02:07:58;1.25;;;0.80;;
11398;SDS011;5755;48.116;11.608;2023-04-24T02:10:25;0.80;;;0.68;;
11398;SDS011;5755;48.116;11.608;2023-04-24T02:12:52;0.80;;;0.80;;
11398;SDS011;5755;48.116;11.608;2023-04-24T02:15:20;0.73;;;0.73;;
11398;SDS011;5755;48.116;11.608;2023-04-24T02:17:47;0.80;;;0.80;;
11398;SDS011;5755;48.116;11.608;2023-04-24T02:20:14;1.77;;;0.80;;
11398;SDS011;5755;48.116;11.608;2023-04-24T02:22:42;0.80;;;0.80;;
11398;SDS011;5755;48.116;11.608;2023-04-24T02:25:10;0.70;;;0.70;;
11398;SDS011;5755;48.116;11.608;2023-04-24T02:27:37;0.70;;;0.70;;
11398;SDS011;5755;48.116;11.608;2023-04-24T02:30:04;1.17;;;0.95;;
11398;SDS011;5755;48.116;11.608;2023-04-24T02:32:34;1.00;;;0.70;;
11398;SDS011;5755;48.116;11.608;2023-04-24T02:35:00;1.20;;;0.70;;
11398;SDS011;5755;48.116;11.608;2023-04-24T02:37:27;1.75;;;0.70;;
11398;SDS011;5755;48.116;11.608;2023-04-24T02:39:54;2.25;;;0.90;;
11398;SDS011;5755;48.116;11.608;2023-04-24T02:42:21;0.90;;;0.85;;
11398;SDS011;5755;48.116;11.608;2023-04-24T02:44:50;0.70;;;0.70;;
11398;SDS011;5755;48.116;11.608;2023-04-24T02:47:17;0.70;;;0.70;;
11398;SDS011;5755;48.116;11.608;2023-04-24T02:49:47;1.13;;;0.80;;
11398;SDS011;5755;48.116;11.608;2023-04-24T02:52:14;1.95;;;0.60;;
11398;SDS011;5755;48.116;11.608;2023-04-24T02:54:41;1.23;;;1.13;;
11398;SDS011;5755;48.116;11.608;2023-04-24T02:57:11;0.80;;;0.80;;
11398;SDS011;5755;48.116;11.608;2023-04-24T02:59:38;0.90;;;0.90;;
11398;SDS011;5755;48.116;11.608;2023-04-24T03:02:05;0.50;;;0.50;;
11398;SDS011;5755;48.116;11.608;2023-04-24T03:04:32;1.10;;;0.80;;
11398;SDS011;5755;48.116;11.608;2023-04-24T03:07:00;1.30;;;0.80;;
11398;SDS011;5755;48.116;11.608;2023-04-24T03:09:27;1.13;;;0.88;;
11398;SDS011;5755;48.116;11.608;2023-04-24T03:11:54;0.95;;;0.68;;
11398;SDS011;5755;48.116;11.608;2023-04-24T03:14:21;0.80;;;0.80;;
11398;SDS011;5755;48.116;11.608;2023-04-24T03:16:48;0.52;;;0.52;;
11398;SDS011;5755;48.116;11.608;2023-04-24T03:21:50;1.08;;;0.70;;
11398;SDS011;5755;48.116;11.608;2023-04-24T03:24:19;0.85;;;0.70;;
11398;SDS011;5755;48.116;11.608;2023-04-24T03:26:46;1.20;;;0.82;;
11398;SDS011;5755;48.116;11.608;2023-04-24T03:29:13;0.70;;;0.70;;
11398;SDS011;5755;48.116;11.608;2023-04-24T03:31:39;1.20;;;0.93;;
11398;SDS011;5755;48.116;11.608;2023-04-24T04:20:40;1.85;;;1.52;;
11398;SDS011;5755;48.116;11.608;2023-04-24T04:23:06;3.17;;;1.13;;
11398;SDS011;5755;48.116;11.608;2023-04-24T04:25:33;2.80;;;1.13;;
11398;SDS011;5755;48.116;11.608;2023-04-24T04:30:35;0.98;;;0.90;;
11398;SDS011;5755;48.116;11.608;2023-04-24T04:33:03;2.05;;;1.02;;
11398;SDS011;5755;48.116;11.608;2023-04-24T04:35:30;0.82;;;0.82;;
11398;SDS011;5755;48.116;11.608;2023-04-24T04:37:58;0.80;;;0.80;;
11398;SDS011;5755;48.116;11.608;2023-04-24T04:40:25;1.98;;;0.93;;
11398;SDS011;5755;48.116;11.608;2023-04-24T04:42:53;0.70;;;0.70;;
11398;SDS011;5755;48.116;11.608;2023-04-24T04:45:20;0.70;;;0.70;;
11398;SDS011;5755;48.116;11.608;2023-04-24T04:47:49;1.45;;;0.90;;
11398;SDS011;5755;48.116;11.608;2023-04-24T04:50:16;1.48;;;1.00;;
11398;SDS011;5755;48.116;11.608;2023-04-24T04:52:44;0.95;;;0.88;;
11398;SDS011;5755;48.116;11.608;2023-04-24T04:55:13;0.93;;;0.85;;
11398;SDS011;5755;48.116;11.608;2023-04-24T04:57:39;0.85;;;0.85;;
11398;SDS011;5755;48.116;11.608;2023-04-24T05:00:07;2.25;;;0.98;;
11398;SDS011;5755;48.116;11.608;2023-04-24T05:02:36;0.85;;;0.73;;
11398;SDS011;5755;48.116;11.608;2023-04-24T05:05:03;0.80;;;0.80;;
11398;SDS011;5755;48.116;11.608;2023-04-24T05:07:31;1.95;;;1.02;;
11398;SDS011;5755;48.116;11.608;2023-04-24T05:09:58;1.20;;;1.10;;
11398;SDS011;5755;48.116;11.608;2023-04-24T05:12:27;2.05;;;0.88;;
11398;SDS011;5755;48.116;11.608;2023-04-24T05:14:54;0.93;;;0.93;;
11398;SDS011;5755;48.116;11.608;2023-04-24T05:17:20;2.05;;;1.00;;
11398;SDS011;5755;48.116;11.608;2023-04-24T05:19:47;1.40;;;0.75;;
11398;SDS011;5755;48.116;11.608;2023-04-24T05:22:14;0.90;;;0.90;;
11398;SDS011;5755;48.116;11.608;2023-04-24T05:24:43;3.33;;;1.00;;
11398;SDS011;5755;48.116;11.608;2023-04-24T05:27:10;0.70;;;0.70;;
11398;SDS011;5755;48.116;11.608;2023-04-24T05:29:38;0.95;;;0.73;;
11398;SDS011;5755;48.116;11.608;2023-04-24T05:32:05;1.25;;;1.00;;
11398;SDS011;5755;48.116;11.608;2023-04-24T05:34:33;1.48;;;0.90;;
11398;SDS011;5755;48.116;11.608;2023-04-24T05:37:00;1.80;;;0.90;;
11398;SDS011;5755;48.116;11.608;2023-04-24T05:39:27;1.17;;;0.80;;
11398;SDS011;5755;48.116;11.608;2023-04-24T05:41:55;0.70;;;0.70;;
11398;SDS011;5755;48.116;11.608;2023-04-24T05:44:23;0.88;;;0.70;;
11398;SDS011;5755;48.116;11.608;2023-04-24T05:46:52;2.92;;;0.68;;
11398;SDS011;5755;48.116;11.608;2023-04-24T05:49:20;1.08;;;0.70;;
11398;SDS011;5755;48.116;11.608;2023-04-24T05:51:48;1.20;;;0.80;;
11398;SDS011;5755;48.116;11.608;2023-04-24T05:54:15;1.00;;;0.80;;
11398;SDS011;5755;48.116;11.608;2023-04-24T05:56:42;1.75;;;0.80;;
11398;SDS011;5755;48.116;11.608;2023-04-24T05:59:09;1.13;;;0.88;;
11398;SDS011;5755;48.116;11.608;2023-04-24T06:01:36;0.80;;;0.80;;
11398;SDS011;5755;48.116;11.608;2023-04-24T06:04:05;1.25;;;0.90;;
11398;SDS011;5755;48.116;11.608;2023-04-24T06:06:34;1.63;;;0.90;;
11398;SDS011;5755;48.116;11.608;2023-04-24T06:09:01;0.77;;;0.75;;
11398;SDS011;5755;48.116;11.608;2023-04-24T06:11:29;1.92;;;0.90;;
11398;SDS011;5755;48.116;11.608;2023-04-24T06:13:56;0.90;;;0.75;;
11398;SDS011;5755;48.116;11.608;2023-04-24T06:16:23;1.95;;;0.77;;
11398;SDS011;5755;48.116;11.608;2023-04-24T06:18:50;0.68;;;0.68;;
11398;SDS011;5755;48.116;11.608;2023-04-24T06:21:19;0.77;;;0.60;;
11398;SDS011;5755;48.116;11.608;2023-04-24T06:23:46;1.75;;;0.50;;
11398;SDS011;5755;48.116;11.608;2023-04-24T06:26:14;1.00;;;0.75;;
11398;SDS011;5755;48.116;11.608;2023-04-24T06:28:44;0.73;;;0.70;;
11398;SDS011;5755;48.116;11.608;2023-04-24T06:31:11;3.30;;;0.75;;
11398;SDS011;5755;48.116;11.608;2023-04-24T06:33:38;1.10;;;0.80;;
11398;SDS011;5755;48.116;11.608;2023-04-24T06:36:05;0.80;;;0.68;;
11398;SDS011;5755;48.116;11.608;2023-04-24T06:38:34;0.65;;;0.60;;
11398;SDS011;5755;48.116;11.608;2023-04-24T06:41:01;2.42;;;0.88;;
11398;SDS011;5755;48.116;11.608;2023-04-24T06:43:30;0.63;;;0.63;;
11398;SDS011;5755;48.116;11.608;2023-04-24T06:45:57;0.75;;;0.70;;
11398;SDS011;5755;48.116;11.608;2023-04-24T06:48:24;0.65;;;0.65;;
11398;SDS011;5755;48.116;11.608;2023-04-24T06:50:51;1.05;;;0.60;;
11398;SDS011;5755;48.116;11.608;2023-04-24T06:53:19;1.30;;;0.63;;
11398;SDS011;5755;48.116;11.608;2023-04-24T06:55:47;0.75;;;0.73;;
11398;SDS011;5755;48.116;11.608;2023-04-24T06:58:17;0.60;;;0.60;;
11398;SDS011;5755;48.116;11.608;2023-04-24T07:00:44;0.80;;;0.80;;
11398;SDS011;5755;48.116;11.608;2023-04-24T07:03:12;0.68;;;0.60;;
11398;SDS011;5755;48.116;11.608;2023-04-24T07:05:39;0.50;;;0.50;;
11398;SDS011;5755;48.116;11.608;2023-04-24T07:08:07;0.52;;;0.52;;
11398;SDS011;5755;48.116;11.608;2023-04-24T07:10:36;0.65;;;0.65;;
11398;SDS011;5755;48.116;11.608;2023-04-24T07:13:05;0.65;;;0.60;;
11398;SDS011;5755;48.116;11.608;2023-04-24T07:15:33;0.70;;;0.63;;
11398;SDS011;5755;48.116;11.608;2023-04-24T07:18:00;0.80;;;0.65;;
11398;SDS011;5755;48.116;11.608;2023-04-24T07:20:27;0.82;;;0.60;;
11398;SDS011;5755;48.116;11.608;2023-04-24T07:22:54;0.60;;;0.57;;
11398;SDS011;5755;48.116;11.608;2023-04-24T07:25:21;0.50;;;0.50;;
11398;SDS011;5755;48.116;11.608;2023-04-24T07:27:48;0.65;;;0.65;;
11398;SDS011;5755;48.116;11.608;2023-04-24T07:30:17;1.05;;;0.80;;
11398;SDS011;5755;48.116;11.608;2023-04-24T07:32:44;0.75;;;0.73;;
11398;SDS011;5755;48.116;11.608;2023-04-24T07:35:11;0.65;;;0.50;;
11398;SDS011;5755;48.116;11.608;2023-04-24T07:37:37;1.15;;;0.60;;
11398;SDS011;5755;48.116;11.608;2023-04-24T07:40:05;0.95;;;0.95;;
11398;SDS011;5755;48.116;11.608;2023-04-24T07:42:34;0.80;;;0.80;;
11398;SDS011;5755;48.116;11.608;2023-04-24T07:45:01;0.50;;;0.50;;
11398;SDS011;5755;48.116;11.608;2023-04-24T07:47:30;0.70;;;0.70;;
11398;SDS011;5755;48.116;11.608;2023-04-24T07:49:57;0.75;;;0.55;;
11398;SDS011;5755;48.116;11.608;2023-04-24T07:52:24;1.77;;;0.80;;
11398;SDS011;5755;48.116;11.608;2023-04-24T07:54:51;0.88;;;0.70;;
11398;SDS011;5755;48.116;11.608;2023-04-24T07:57:23;0.93;;;0.90;;
11398;SDS011;5755;48.116;11.608;2023-04-24T07:59:50;0.77;;;0.70;;
11398;SDS011;5755;48.116;11.608;2023-04-24T08:02:17;2.10;;;1.10;;
11398;SDS011;5755;48.116;11.608;2023-04-24T08:04:48;2.78;;;0.80;;
11398;SDS011;5755;48.116;11.608;2023-04-24T08:07:14;1.23;;;0.70;;
11398;SDS011;5755;48.116;11.608;2023-04-24T08:09:42;1.00;;;0.90;;
11398;SDS011;5755;48.116;11.608;2023-04-24T08:12:08;6.03;;;1.48;;
11398;SDS011;5755;48.116;11.608;2023-04-24T08:14:36;1.08;;;0.70;;
11398;SDS011;5755;48.116;11.608;2023-04-24T08:17:03;1.05;;;0.70;;
11398;SDS011;5755;48.116;11.608;2023-04-24T08:19:30;0.77;;;0.77;;
11398;SDS011;5755;48.116;11.608;2023-04-24T08:21:58;2.03;;;0.80;;
11398;SDS011;5755;48.116;11.608;2023-04-24T08:24:25;1.33;;;0.73;;
11398;SDS011;5755;48.116;11.608;2023-04-24T08:26:52;1.27;;;1.00;;
11398;SDS011;5755;48.116;11.608;2023-04-24T08:29:21;2.90;;;2.08;;
11398;SDS011;5755;48.116;11.608;2023-04-24T08:31:48;0.70;;;0.70;;
11398;SDS011;5755;48.116;11.608;2023-04-24T08:34:15;0.80;;;0.80;;
11398;SDS011;5755;48.116;11.608;2023-04-24T08:36:42;0.70;;;0.60;;
11398;SDS011;5755;48.116;11.608;2023-04-24T08:39:11;2.25;;;0.80;;
11398;SDS011;5755;48.116;11.608;2023-04-24T08:41:37;3.45;;;0.93;;
11398;SDS011;5755;48.116;11.608;2023-04-24T08:44:07;0.60;;;0.60;;
11398;SDS011;5755;48.116;11.608;2023-04-24T08:46:35;0.82;;;0.82;;
11398;SDS011;5755;48.116;11.608;2023-04-24T08:49:03;1.75;;;0.93;;
11398;SDS011;5755;48.116;11.608;2023-04-24T08:51:30;0.90;;;0.90;;
11398;SDS011;5755;48.116;11.608;2023-04-24T08:53:57;1.20;;;1.10;;
11398;SDS011;5755;48.116;11.608;2023-04-24T08:56:26;3.90;;;1.20;;
11398;SDS011;5755;48.116;11.608;2023-04-24T08:58:56;1.30;;;1.13;;
11398;SDS011;5755;48.116;11.608;2023-04-24T09:01:23;3.70;;;1.20;;
11398;SDS011;5755;48.116;11.608;2023-04-24T09:03:52;1.10;;;1.00;;
11398;SDS011;5755;48.116;11.608;2023-04-24T09:06:21;4.40;;;1.17;;
11398;SDS011;5755;48.116;11.608;2023-04-24T09:08:50;1.95;;;1.15;;
11398;SDS011;5755;48.116;11.608;2023-04-24T09:11:19;1.10;;;1.00;;
11398;SDS011;5755;48.116;11.608;2023-04-24T09:13:49;1.33;;;1.10;;
11398;SDS011;5755;48.116;11.608;2023-04-24T09:16:17;1.48;;;1.20;;
11398;SDS011;5755;48.116;11.608;2023-04-24T09:18:45;1.33;;;1.15;;
11398;SDS011;5755;48.116;11.608;2023-04-24T09:21:12;2.17;;;1.05;;
11398;SDS011;5755;48.116;11.608;2023-04-24T09:23:39;1.92;;;1.20;;
11398;SDS011;5755;48.116;11.608;2023-04-24T09:26:07;2.97;;;1.00;;
11398;SDS011;5755;48.116;11.608;2023-04-24T09:28:36;2.22;;;1.02;;
11398;SDS011;5755;48.116;11.608;2023-04-24T09:31:06;0.90;;;0.90;;
11398;SDS011;5755;48.116;11.608;2023-04-24T09:33:35;1.00;;;1.00;;
11398;SDS011;5755;48.116;11.608;2023-04-24T09:36:02;1.20;;;1.10;;
11398;SDS011;5755;48.116;11.608;2023-04-24T09:38:31;3.83;;;0.90;;
11398;SDS011;5755;48.116;11.608;2023-04-24T09:40:59;1.40;;;1.00;;
11398;SDS011;5755;48.116;11.608;2023-04-24T09:43:28;2.15;;;1.15;;
11398;SDS011;5755;48.116;11.608;2023-04-24T09:45:55;1.42;;;1.33;;
11398;SDS011;5755;48.116;11.608;2023-04-24T09:48:31;2.10;;;1.00;;
11398;SDS011;5755;48.116;11.608;2023-04-24T09:50:59;1.42;;;1.27;;
11398;SDS011;5755;48.116;11.608;2023-04-24T09:53:28;1.33;;;1.10;;
11398;SDS011;5755;48.116;11.608;2023-04-24T09:55:55;3.42;;;1.05;;
11398;SDS011;5755;48.116;11.608;2023-04-24T09:58:28;1.55;;;1.38;;
11398;SDS011;5755;48.116;11.608;2023-04-24T10:00:55;1.40;;;1.30;;
11398;SDS011;5755;48.116;11.608;2023-04-24T10:03:24;1.85;;;1.05;;
11398;SDS011;5755;48.116;11.608;2023-04-24T10:05:53;2.72;;;1.15;;
11398;SDS011;5755;48.116;11.608;2023-04-24T10:08:25;2.33;;;1.20;;
11398;SDS011;5755;48.116;11.608;2023-04-24T10:10:52;1.95;;;1.48;;
11398;SDS011;5755;48.116;11.608;2023-04-24T10:13:20;1.65;;;1.20;;
11398;SDS011;5755;48.116;11.608;2023-04-24T10:15:53;3.00;;;1.40;;
11398;SDS011;5755;48.116;11.608;2023-04-24T10:18:22;1.55;;;1.00;;
11398;SDS011;5755;48.116;11.608;2023-04-24T10:20:50;3.33;;;1.17;;
11398;SDS011;5755;48.116;11.608;2023-04-24T10:23:21;2.15;;;1.45;;
11398;SDS011;5755;48.116;11.608;2023-04-24T10:25:49;1.95;;;1.45;;
11398;SDS011;5755;48.116;11.608;2023-04-24T10:28:20;1.33;;;1.20;;
11398;SDS011;5755;48.116;11.608;2023-04-24T10:30:48;1.60;;;1.30;;
11398;SDS011;5755;48.116;11.608;2023-04-24T10:33:24;2.78;;;1.73;;
11398;SDS011;5755;48.116;11.608;2023-04-24T10:35:53;5.20;;;1.27;;
11398;SDS011;5755;48.116;11.608;2023-04-24T10:38:23;2.75;;;1.00;;
11398;SDS011;5755;48.116;11.608;2023-04-24T10:40:56;2.10;;;1.50;;
11398;SDS011;5755;48.116;11.608;2023-04-24T10:43:32;1.75;;;1.15;;
11398;SDS011;5755;48.116;11.608;2023-04-24T10:46:00;1.52;;;1.10;;
11398;SDS011;5755;48.116;11.608;2023-04-24T10:48:28;1.30;;;1.20;;
11398;SDS011;5755;48.116;11.608;2023-04-24T10:50:56;2.58;;;1.30;;
11398;SDS011;5755;48.116;11.608;2023-04-24T10:53:25;1.40;;;1.30;;
11398;SDS011;5755;48.116;11.608;2023-04-24T10:55:57;1.10;;;1.00;;
11398;SDS011;5755;48.116;11.608;2023-04-24T10:58:35;5.85;;;1.58;;
11398;SDS011;5755;48.116;11.608;2023-04-24T11:01:05;2.92;;;1.10;;
11398;SDS011;5755;48.116;11.608;2023-04-24T11:03:33;2.08;;;0.80;;
11398;SDS011;5755;48.116;11.608;2023-04-24T11:06:02;1.67;;;1.08;;
11398;SDS011;5755;48.116;11.608;2023-04-24T11:08:33;1.35;;;1.00;;
11398;SDS011;5755;48.116;11.608;2023-04-24T11:11:08;1.90;;;1.00;;
11398;SDS011;5755;48.116;11.608;2023-04-24T11:16:29;1.38;;;1.00;;
11398;SDS011;5755;48.116;11.608;2023-04-24T11:19:02;0.80;;;0.80;;
11398;SDS011;5755;48.116;11.608;2023-04-24T11:21:32;1.13;;;0.93;;
11398;SDS011;5755;48.116;11.608;2023-04-24T11:24:40;1.40;;;0.90;;
11398;SDS011;5755;48.116;11.608;2023-04-24T11:27:29;2.05;;;1.30;;
11398;SDS011;5755;48.116;11.608;2023-04-24T11:30:01;0.80;;;0.80;;
11398;SDS011;5755;48.116;11.608;2023-04-24T11:32:30;1.15;;;1.10;;
11398;SDS011;5755;48.116;11.608;2023-04-24T11:35:02;2.60;;;1.08;;
11398;SDS011;5755;48.116;11.608;2023-04-24T11:37:33;2.17;;;1.20;;
11398;SDS011;5755;48.116;11.608;2023-04-24T11:40:04;1.30;;;1.20;;
11398;SDS011;5755;48.116;11.608;2023-04-24T11:42:35;1.40;;;1.30;;
11398;SDS011;5755;48.116;11.608;2023-04-24T11:45:06;1.67;;;1.30;;
11398;SDS011;5755;48.116;11.608;2023-04-24T11:47:35;1.50;;;1.40;;
11398;SDS011;5755;48.116;11.608;2023-04-24T11:50:06;1.50;;;1.33;;
11398;SDS011;5755;48.116;11.608;2023-04-24T11:52:49;1.20;;;1.10;;
11398;SDS011;5755;48.116;11.608;2023-04-24T11:58:23;3.00;;;1.60;;
11398;SDS011;5755;48.116;11.608;2023-04-24T12:00:55;2.47;;;1.27;;
11398;SDS011;5755;48.116;11.608;2023-04-24T12:03:24;1.77;;;1.30;;
11398;SDS011;5755;48.116;11.608;2023-04-24T12:05:51;2.55;;;1.25;;
11398;SDS011;5755;48.116;11.608;2023-04-24T12:08:26;1.83;;;1.30;;
11398;SDS011;5755;48.116;11.608;2023-04-24T12:10:55;1.80;;;1.20;;
11398;SDS011;5755;48.116;11.608;2023-04-24T12:13:36;2.58;;;1.10;;
11398;SDS011;5755;48.116;11.608;2023-04-24T12:16:03;1.33;;;1.10;;
11398;SDS011;5755;48.116;11.608;2023-04-24T12:18:30;1.75;;;1.30;;
11398;SDS011;5755;48.116;11.608;2023-04-24T12:21:17;1.20;;;1.10;;
11398;SDS011;5755;48.116;11.608;2023-04-24T12:23:45;1.98;;;1.13;;
11398;SDS011;5755;48.116;11.608;2023-04-24T12:26:17;2.20;;;1.25;;
11398;SDS011;5755;48.116;11.608;2023-04-24T12:28:48;1.65;;;1.17;;
11398;SDS011;5755;48.116;11.608;2023-04-24T12:31:15;2.47;;;1.10;;
11398;SDS011;5755;48.116;11.608;2023-04-24T12:33:45;1.88;;;1.27;;
11398;SDS011;5755;48.116;11.608;2023-04-24T12:36:16;1.73;;;1.00;;
11398;SDS011;5755;48.116;11.608;2023-04-24T12:38:52;1.77;;;1.20;;
11398;SDS011;5755;48.116;11.608;2023-04-24T12:41:30;3.47;;;1.80;;
11398;SDS011;5755;48.116;11.608;2023-04-24T12:44:15;5.30;;;2.45;;
11398;SDS011;5755;48.116;11.608;2023-04-24T12:46:43;1.38;;;1.08;;
11398;SDS011;5755;48.116;11.608;2023-04-24T12:49:11;1.92;;;1.27;;
11398;SDS011;5755;48.116;11.608;2023-04-24T12:51:53;1.63;;;1.35;;
11398;SDS011;5755;48.116;11.608;2023-04-24T12:54:46;1.40;;;1.20;;
11398;SDS011;5755;48.116;11.608;2023-04-24T12:57:31;1.42;;;1.30;;
11398;SDS011;5755;48.116;11.608;2023-04-24T12:59:58;3.20;;;1.55;;
11398;SDS011;5755;48.116;11.608;2023-04-24T13:02:26;1.52;;;1.40;;
11398;SDS011;5755;48.116;11.608;2023-04-24T13:04:56;2.67;;;1.45;;
11398;SDS011;5755;48.116;11.608;2023-04-24T13:07:24;2.10;;;1.52;;
11398;SDS011;5755;48.116;11.608;2023-04-24T13:09:52;3.33;;;1.38;;
11398;SDS011;5755;48.116;11.608;2023-04-24T13:12:20;3.75;;;1.50;;
11398;SDS011;5755;48.116;11.608;2023-04-24T13:14:57;3.20;;;1.55;;
11398;SDS011;5755;48.116;11.608;2023-04-24T13:20:38;1.73;;;1.48;;
11398;SDS011;5755;48.116;11.608;2023-04-24T13:23:11;3.88;;;1.30;;
11398;SDS011;5755;48.116;11.608;2023-04-24T13:25:42;2.45;;;1.50;;
11398;SDS011;5755;48.116;11.608;2023-04-24T13:28:09;2.00;;;1.40;;
11398;SDS011;5755;48.116;11.608;2023-04-24T13:30:38;3.75;;;1.20;;
11398;SDS011;5755;48.116;11.608;2023-04-24T13:33:05;2.00;;;1.58;;
11398;SDS011;5755;48.116;11.608;2023-04-24T13:35:32;1.83;;;1.30;;
11398;SDS011;5755;48.116;11.608;2023-04-24T13:37:59;3.78;;;1.60;;
11398;SDS011;5755;48.116;11.608;2023-04-24T13:40:30;1.52;;;1.42;;
11398;SDS011;5755;48.116;11.608;2023-04-24T13:42:57;1.70;;;1.38;;
11398;SDS011;5755;48.116;11.608;2023-04-24T13:45:24;2.25;;;1.50;;
11398;SDS011;5755;48.116;11.608;2023-04-24T13:47:53;3.22;;;1.70;;
11398;SDS011;5755;48.116;11.608;2023-04-24T13:50:22;1.60;;;1.48;;
11398;SDS011;5755;48.116;11.608;2023-04-24T13:52:49;2.10;;;1.90;;
11398;SDS011;5755;48.116;11.608;2023-04-24T14:00:15;4.50;;;1.85;;
11398;SDS011;5755;48.116;11.608;2023-04-24T14:02:42;2.70;;;1.50;;
11398;SDS011;5755;48.116;11.608;2023-04-24T14:05:12;2.58;;;1.40;;
11398;SDS011;5755;48.116;11.608;2023-04-24T14:07:39;1.63;;;1.52;;
11398;SDS011;5755;48.116;11.608;2023-04-24T14:10:06;1.95;;;1.50;;
11398;SDS011;5755;48.116;11.608;2023-04-24T14:12:34;1.85;;;1.65;;
11398;SDS011;5755;48.116;11.608;2023-04-24T14:15:01;2.05;;;1.23;;
11398;SDS011;5755;48.116;11.608;2023-04-24T14:20:08;4.63;;;2.13;;
11398;SDS011;5755;48.116;11.608;2023-04-24T14:38:14;3.03;;;1.60;;
11398;SDS011;5755;48.116;11.608;2023-04-24T14:40:40;3.45;;;1.65;;
11398;SDS011;5755;48.116;11.608;2023-04-24T14:43:08;6.10;;;2.67;;
11398;SDS011;5755;48.116;11.608;2023-04-24T14:45:35;2.10;;;1.40;;
11398;SDS011;5755;48.116;11.608;2023-04-24T14:48:03;4.50;;;1.40;;
11398;SDS011;5755;48.116;11.608;2023-04-24T14:50:30;2.22;;;1.63;;
11398;SDS011;5755;48.116;11.608;2023-04-24T14:52:57;2.47;;;1.50;;
11398;SDS011;5755;48.116;11.608;2023-04-24T14:55:25;3.42;;;2.17;;
11398;SDS011;5755;48.116;11.608;2023-04-24T14:57:52;2.65;;;1.70;;
11398;SDS011;5755;48.116;11.608;2023-04-24T15:00:19;3.85;;;1.80;;
11398;SDS011;5755;48.116;11.608;2023-04-24T15:02:48;2.05;;;1.60;;
11398;SDS011;5755;48.116;11.608;2023-04-24T15:05:15;3.17;;;1.42;;
11398;SDS011;5755;48.116;11.608;2023-04-24T15:07:42;2.20;;;2.00;;
11398;SDS011;5755;48.116;11.608;2023-04-24T15:10:10;2.58;;;1.60;;
11398;SDS011;5755;48.116;11.608;2023-04-24T15:12:38;4.57;;;1.60;;
11398;SDS011;5755;48.116;11.608;2023-04-24T15:15:07;2.58;;;1.60;;
11398;SDS011;5755;48.116;11.608;2023-04-24T15:17:35;1.65;;;1.40;;
11398;SDS011;5755;48.116;11.608;2023-04-24T15:20:02;4.70;;;1.50;;
11398;SDS011;5755;48.116;11.608;2023-04-24T15:22:31;4.32;;;1.75;;
11398;SDS011;5755;48.116;11.608;2023-04-24T15:24:58;2.70;;;1.70;;
11398;SDS011;5755;48.116;11.608;2023-04-24T15:27:26;3.97;;;1.52;;
11398;SDS011;5755;48.116;11.608;2023-04-24T15:29:54;2.65;;;1.50;;
11398;SDS011;5755;48.116;11.608;2023-04-24T15:32:21;1.35;;;1.25;;
11398;SDS011;5755;48.116;11.608;2023-04-24T15:34:48;4.28;;;1.50;;
11398;SDS011;5755;48.116;11.608;2023-04-24T15:45:03;3.40;;;1.75;;
11398;SDS011;5755;48.116;11.608;2023-04-24T15:57:51;1.88;;;1.40;;
11398;SDS011;5755;48.116;11.608;2023-04-24T16:02:55;3.42;;;1.40;;
11398;SDS011;5755;48.116;11.608;2023-04-24T16:05:22;3.50;;;1.60;;
11398;SDS011;5755;48.116;11.608;2023-04-24T16:07:49;1.48;;;1.20;;
11398;SDS011;5755;48.116;11.608;2023-04-24T16:10:16;1.92;;;1.40;;
11398;SDS011;5755;48.116;11.608;2023-04-24T16:12:43;5.47;;;3.40;;
11398;SDS011;5755;48.116;11.608;2023-04-24T16:15:10;2.90;;;1.50;;
11398;SDS011;5755;48.116;11.608;2023-04-24T16:17:37;1.40;;;1.30;;
11398;SDS011;5755;48.116;11.608;2023-04-24T16:20:06;2.10;;;1.90;;
11398;SDS011;5755;48.116;11.608;2023-04-24T16:22:33;1.58;;;1.40;;
11398;SDS011;5755;48.116;11.608;2023-04-24T16:25:00;1.77;;;1.13;;
11398;SDS011;5755;48.116;11.608;2023-04-24T16:48:07;1.20;;;1.10;;
11398;SDS011;5755;48.116;11.608;2023-04-24T16:50:35;1.23;;;1.10;;
11398;SDS011;5755;48.116;11.608;2023-04-24T16:53:02;2.65;;;1.80;;
11398;SDS011;5755;48.116;11.608;2023-04-24T16:55:29;1.30;;;1.20;;
11398;SDS011;5755;48.116;11.608;2023-04-24T17:03:06;1.63;;;1.38;;
11398;SDS011;5755;48.116;11.608;2023-04-24T17:05:33;1.35;;;1.25;;
11398;SDS011;5755;48.116;11.608;2023-04-24T17:08:01;1.60;;;1.40;;
11398;SDS011;5755;48.116;11.608;2023-04-24T17:13:03;1.80;;;1.40;;
11398;SDS011;5755;48.116;11.608;2023-04-24T17:15:30;2.53;;;1.30;;
11398;SDS011;5755;48.116;11.608;2023-04-24T17:17:57;1.30;;;1.20;;
11398;SDS011;5755;48.116;11.608;2023-04-24T17:20:26;1.15;;;1.05;;
11398;SDS011;5755;48.116;11.608;2023-04-24T17:22:53;2.90;;;1.30;;
11398;SDS011;5755;48.116;11.608;2023-04-24T17:25:20;1.17;;;1.10;;
11398;SDS011;5755;48.116;11.608;2023-04-24T17:27:47;2.33;;;1.23;;
11398;SDS011;5755;48.116;11.608;2023-04-24T17:30:14;3.10;;;1.50;;
11398;SDS011;5755;48.116;11.608;2023-04-24T17:32:41;1.17;;;1.10;;